createdAt,value
2023-02-17T00:01:15.417Z,2.80
2023-02-17T00:03:43.744Z,2.90
2023-02-17T00:06:12.635Z,2.90
2023-02-17T00:08:42.068Z,2.90
2023-02-17T00:11:10.102Z,3.00
2023-02-17T00:13:38.067Z,3.00
2023-02-17T00:16:09.961Z,3.00
2023-02-17T00:18:38.376Z,3.00
2023-02-17T00:21:13.711Z,3.00
2023-02-17T00:23:43.190Z,3.10
2023-02-17T00:26:11.597Z,3.10
2023-02-17T00:28:39.800Z,3.10
2023-02-17T00:31:09.439Z,3.10
2023-02-17T00:33:37.981Z,3.20
2023-02-17T00:36:07.765Z,3.20
2023-02-17T00:38:35.901Z,3.20
2023-02-17T00:41:05.414Z,3.20
2023-02-17T00:43:33.427Z,3.20
2023-02-17T00:46:04.186Z,3.20
2023-02-17T00:48:32.981Z,3.20
2023-02-17T00:51:00.996Z,3.20
2023-02-17T00:53:29.036Z,3.20
2023-02-17T00:55:57.181Z,3.20
2023-02-17T00:58:26.732Z,3.30
2023-02-17T01:00:56.098Z,3.30
2023-02-17T01:03:24.243Z,3.30
2023-02-17T01:05:54.496Z,3.30
2023-02-17T01:08:23.913Z,3.30
2023-02-17T01:10:53.154Z,3.30
2023-02-17T01:13:21.382Z,3.30
2023-02-17T01:15:52.775Z,3.30
2023-02-17T01:18:23.293Z,3.40
2023-02-17T01:20:52.470Z,3.40
2023-02-17T01:23:20.600Z,3.30
2023-02-17T01:25:50.714Z,3.30
2023-02-17T01:28:21.316Z,3.30
2023-02-17T01:30:50.877Z,3.30
2023-02-17T01:33:18.819Z,3.30
2023-02-17T01:35:46.732Z,3.30
2023-02-17T01:38:14.737Z,3.30
2023-02-17T01:40:48.227Z,3.30
2023-02-17T01:43:17.985Z,3.30
2023-02-17T01:45:51.556Z,3.30
2023-02-17T01:48:23.681Z,3.30
2023-02-17T01:50:53.928Z,3.30
2023-02-17T01:53:25.031Z,3.30
2023-02-17T01:55:55.619Z,3.30
2023-02-17T01:58:25.790Z,3.30
2023-02-17T02:00:56.545Z,3.30
2023-02-17T02:03:26.402Z,3.30
2023-02-17T02:05:54.363Z,3.30
2023-02-17T02:08:22.347Z,3.30
2023-02-17T02:10:50.324Z,3.30
2023-02-17T02:13:18.237Z,3.30
2023-02-17T02:15:53.473Z,3.30
2023-02-17T02:18:38.922Z,3.30
2023-02-17T02:21:54.797Z,3.30
2023-02-17T02:24:29.606Z,3.30
2023-02-17T02:27:21.406Z,3.40
2023-02-17T02:30:29.435Z,3.40
2023-02-17T02:33:14.840Z,3.40
2023-02-17T02:35:52.272Z,3.40
2023-02-17T02:38:26.857Z,3.40
2023-02-17T02:41:02.232Z,3.40
2023-02-17T02:43:31.816Z,3.50
2023-02-17T02:46:00.135Z,3.50
2023-02-17T02:48:29.510Z,3.40
2023-02-17T02:51:13.554Z,3.50
2023-02-17T02:54:09.953Z,3.50
2023-02-17T02:56:52.363Z,3.50
2023-02-17T02:59:32.932Z,3.50
2023-02-17T03:02:11.191Z,3.50
2023-02-17T03:04:47.115Z,3.50
2023-02-17T03:07:22.791Z,3.60
2023-02-17T03:09:52.206Z,3.50
2023-02-17T03:12:21.216Z,3.60
2023-02-17T03:14:51.408Z,3.60
2023-02-17T03:17:19.355Z,3.50
2023-02-17T03:19:52.629Z,3.60
2023-02-17T03:22:23.583Z,3.60
2023-02-17T03:24:52.308Z,3.60
2023-02-17T03:27:20.615Z,3.60
2023-02-17T03:29:49.589Z,3.60
2023-02-17T03:32:20.128Z,3.60
2023-02-17T03:34:48.293Z,3.60
2023-02-17T03:37:17.567Z,3.60
2023-02-17T03:39:45.438Z,3.70
2023-02-17T03:42:13.337Z,3.60
2023-02-17T03:44:41.202Z,3.70
2023-02-17T03:47:09.166Z,3.70
2023-02-17T03:49:37.085Z,3.60
2023-02-17T03:52:05.347Z,3.70
2023-02-17T03:54:34.711Z,3.70
2023-02-17T03:57:02.599Z,3.70
2023-02-17T03:59:30.466Z,3.70
2023-02-17T04:01:58.502Z,3.70
2023-02-17T04:04:26.552Z,3.70
2023-02-17T04:06:54.601Z,3.70
2023-02-17T04:09:22.585Z,3.80
2023-02-17T04:11:51.796Z,3.80
2023-02-17T04:14:19.711Z,3.80
2023-02-17T04:16:47.776Z,3.80
2023-02-17T04:19:15.735Z,3.80
2023-02-17T04:21:43.729Z,3.80
2023-02-17T04:24:11.596Z,3.80
2023-02-17T04:26:39.511Z,3.80
2023-02-17T04:29:08.738Z,3.80
2023-02-17T04:31:36.707Z,3.80
2023-02-17T04:34:04.661Z,3.80
2023-02-17T04:36:32.548Z,3.80
2023-02-17T04:39:00.463Z,3.80
2023-02-17T04:41:28.459Z,3.90
2023-02-17T04:43:56.368Z,3.90
2023-02-17T04:46:25.624Z,3.90
2023-02-17T04:48:53.534Z,3.90
2023-02-17T04:51:21.489Z,3.80
2023-02-17T04:53:49.535Z,3.90
2023-02-17T04:56:17.516Z,3.90
2023-02-17T04:58:45.526Z,3.90
2023-02-17T05:01:13.484Z,3.80
2023-02-17T05:03:42.972Z,3.90
2023-02-17T05:06:10.927Z,3.90
2023-02-17T05:08:38.881Z,3.90
2023-02-17T05:11:06.785Z,3.90
2023-02-17T05:13:34.718Z,3.90
2023-02-17T05:16:03.178Z,3.90
2023-02-17T05:18:31.159Z,3.90
2023-02-17T05:21:00.438Z,4.00
2023-02-17T05:23:28.364Z,4.00
2023-02-17T05:25:56.328Z,4.00
2023-02-17T05:28:24.282Z,3.90
2023-02-17T05:30:52.361Z,3.90
2023-02-17T05:33:20.330Z,3.90
2023-02-17T05:35:48.264Z,3.90
2023-02-17T05:38:17.650Z,3.90
2023-02-17T05:40:45.570Z,3.90
2023-02-17T05:43:13.494Z,3.90
2023-02-17T05:45:41.384Z,3.90
2023-02-17T05:48:09.269Z,4.00
2023-02-17T05:50:37.173Z,3.90
2023-02-17T05:53:05.169Z,4.00
2023-02-17T05:55:34.489Z,4.00
2023-02-17T05:58:02.348Z,4.00
2023-02-17T06:00:32.066Z,4.00
2023-02-17T06:03:00.018Z,4.00
2023-02-17T06:05:27.936Z,4.00
2023-02-17T06:07:55.854Z,4.00
2023-02-17T06:10:23.754Z,4.00
2023-02-17T06:12:53.005Z,4.10
2023-02-17T06:15:20.947Z,4.10
2023-02-17T06:17:48.907Z,4.10
2023-02-17T06:20:17.106Z,4.10
2023-02-17T06:22:45.037Z,4.10
2023-02-17T06:25:12.988Z,4.10
2023-02-17T06:27:42.852Z,4.10
2023-02-17T06:30:13.690Z,4.10
2023-02-17T06:32:41.733Z,4.20
2023-02-17T06:35:09.782Z,4.10
2023-02-17T06:37:37.722Z,4.10
2023-02-17T06:40:06.533Z,4.20
2023-02-17T06:42:34.467Z,4.10
2023-02-17T06:45:05.466Z,4.20
2023-02-17T06:47:35.161Z,4.20
2023-02-17T06:50:03.293Z,4.20
2023-02-17T06:52:31.255Z,4.20
2023-02-17T06:54:59.230Z,4.30
2023-02-17T06:57:27.288Z,4.30
2023-02-17T06:59:55.241Z,4.30
2023-02-17T07:02:23.306Z,4.30
2023-02-17T07:04:52.581Z,4.30
2023-02-17T07:07:20.519Z,4.40
2023-02-17T07:09:48.475Z,4.50
2023-02-17T07:12:16.440Z,4.60
2023-02-17T07:14:44.834Z,4.60
2023-02-17T07:17:12.737Z,4.70
2023-02-17T07:19:40.713Z,4.80
2023-02-17T07:22:09.961Z,5.00
2023-02-17T07:24:37.839Z,5.00
2023-02-17T07:27:08.084Z,5.10
2023-02-17T07:29:37.062Z,5.20
2023-02-17T07:32:05.293Z,5.20
2023-02-17T07:34:33.297Z,5.10
2023-02-17T07:37:01.232Z,5.10
2023-02-17T07:39:30.476Z,5.00
2023-02-17T07:42:00.975Z,5.00
2023-02-17T07:44:29.136Z,5.00
2023-02-17T07:46:57.047Z,5.00
2023-02-17T07:49:25.031Z,5.10
2023-02-17T07:51:52.953Z,5.10
2023-02-17T07:54:20.892Z,5.10
2023-02-17T07:56:50.150Z,5.10
2023-02-17T07:59:18.198Z,5.20
2023-02-17T08:01:46.346Z,5.20
2023-02-17T08:04:14.354Z,5.20
2023-02-17T08:06:42.248Z,5.20
2023-02-17T08:09:29.278Z,5.20
2023-02-17T08:12:16.223Z,5.20
2023-02-17T08:14:44.169Z,5.20
2023-02-17T08:17:12.119Z,5.20
2023-02-17T08:19:48.184Z,5.20
2023-02-17T08:22:17.389Z,5.20
2023-02-17T08:24:45.496Z,5.20
2023-02-17T08:27:15.658Z,5.30
2023-02-17T08:29:43.895Z,5.30
2023-02-17T08:32:12.101Z,5.30
2023-02-17T08:34:40.261Z,5.40
2023-02-17T08:37:09.237Z,5.40
2023-02-17T08:39:37.973Z,5.50
2023-02-17T08:42:06.670Z,5.50
2023-02-17T08:44:37.717Z,5.60
2023-02-17T08:47:06.369Z,5.70
2023-02-17T08:49:34.867Z,5.80
2023-02-17T08:52:03.196Z,5.80
2023-02-17T08:54:31.750Z,5.80
2023-02-17T08:56:59.867Z,5.90
2023-02-17T08:59:27.962Z,5.90
2023-02-17T09:01:57.800Z,5.90
2023-02-17T09:04:26.026Z,6.00
2023-02-17T09:06:56.788Z,6.00
2023-02-17T09:09:27.791Z,6.00
2023-02-17T09:11:57.282Z,6.00
2023-02-17T09:14:25.556Z,6.10
2023-02-17T09:16:54.389Z,6.10
2023-02-17T09:19:24.551Z,6.10
2023-02-17T09:21:52.597Z,6.10
2023-02-17T09:24:20.750Z,6.00
2023-02-17T09:26:48.686Z,6.00
2023-02-17T09:29:16.683Z,6.00
2023-02-17T09:31:46.124Z,5.90
2023-02-17T09:34:15.074Z,6.00
2023-02-17T09:36:44.426Z,6.00
2023-02-17T09:39:14.101Z,6.00
2023-02-17T09:41:44.562Z,6.00
2023-02-17T09:44:20.540Z,5.90
2023-02-17T09:47:01.721Z,5.90
2023-02-17T09:49:36.472Z,5.90
2023-02-17T09:52:09.983Z,5.90
2023-02-17T09:54:45.777Z,5.90
2023-02-17T09:57:19.707Z,5.90
2023-02-17T09:59:51.680Z,5.90
2023-02-17T10:02:28.395Z,5.90
2023-02-17T10:05:01.065Z,5.90
2023-02-17T10:07:33.965Z,5.90
2023-02-17T10:10:09.329Z,6.00
2023-02-17T10:12:41.670Z,6.00
2023-02-17T10:15:16.042Z,6.00
2023-02-17T10:17:51.720Z,6.10
2023-02-17T10:20:23.722Z,6.10
2023-02-17T10:22:58.345Z,6.30
2023-02-17T10:25:43.568Z,6.30
2023-02-17T10:28:18.094Z,6.40
2023-02-17T10:30:53.966Z,6.40
2023-02-17T10:33:26.952Z,6.50
2023-02-17T10:35:59.308Z,6.50
2023-02-17T10:38:42.729Z,6.50
2023-02-17T10:41:14.694Z,6.60
2023-02-17T10:43:45.715Z,6.60
2023-02-17T10:46:16.480Z,6.70
2023-02-17T10:48:48.412Z,6.70
2023-02-17T10:51:19.489Z,6.70
2023-02-17T10:53:52.376Z,6.70
2023-02-17T10:56:23.241Z,6.70
2023-02-17T10:58:55.933Z,6.80
2023-02-17T11:01:24.290Z,6.80
2023-02-17T11:04:02.385Z,6.80
2023-02-17T11:06:31.448Z,6.90
2023-02-17T11:09:03.287Z,7.00
2023-02-17T11:11:33.226Z,7.10
2023-02-17T11:14:11.688Z,7.00
2023-02-17T11:16:42.585Z,7.10
2023-02-17T11:19:23.481Z,7.10
2023-02-17T11:21:52.789Z,7.00
2023-02-17T11:24:22.668Z,7.00
2023-02-17T11:26:58.577Z,7.00
2023-02-17T11:29:26.841Z,6.90
2023-02-17T11:31:57.478Z,6.90
2023-02-17T11:34:28.981Z,7.00
2023-02-17T11:37:02.981Z,7.00
2023-02-17T11:39:38.219Z,7.00
2023-02-17T11:42:16.408Z,7.00
2023-02-17T11:44:44.649Z,7.00
2023-02-17T11:47:22.921Z,6.90
2023-02-17T11:50:04.823Z,6.90
2023-02-17T11:52:47.587Z,6.90
2023-02-17T11:55:30.386Z,6.90
2023-02-17T11:58:18.774Z,6.90
2023-02-17T12:00:54.895Z,6.90
2023-02-17T12:03:41.873Z,6.90
2023-02-17T12:06:14.911Z,6.90
2023-02-17T12:09:03.596Z,7.00
2023-02-17T12:11:39.326Z,6.90
2023-02-17T12:14:22.776Z,6.90
2023-02-17T12:16:56.635Z,6.90
2023-02-17T12:19:39.611Z,6.90
2023-02-17T12:22:17.767Z,6.80
2023-02-17T12:25:19.243Z,6.90
2023-02-17T12:28:00.116Z,6.90
2023-02-17T12:30:39.968Z,6.90
2023-02-17T12:33:22.799Z,6.80
2023-02-17T12:35:56.271Z,6.80
2023-02-17T12:38:27.264Z,6.70
2023-02-17T12:41:00.906Z,6.70
2023-02-17T12:43:36.962Z,6.70
2023-02-17T12:46:10.487Z,6.80
2023-02-17T12:48:43.562Z,6.80
2023-02-17T12:51:16.255Z,6.70
2023-02-17T12:53:48.824Z,6.80
2023-02-17T12:56:39.139Z,6.80
2023-02-17T12:59:14.849Z,6.80
2023-02-17T13:01:54.064Z,6.80
2023-02-17T13:04:25.113Z,6.80
2023-02-17T13:07:04.245Z,6.80
2023-02-17T13:09:36.449Z,6.70
2023-02-17T13:12:33.461Z,6.80
2023-02-17T13:15:06.479Z,6.80
2023-02-17T13:17:37.958Z,6.70
2023-02-17T13:20:27.185Z,6.70
2023-02-17T13:23:08.108Z,6.70
2023-02-17T13:25:38.183Z,6.70
2023-02-17T13:28:19.052Z,6.70
2023-02-17T13:30:52.209Z,6.70
2023-02-17T13:33:31.613Z,6.70
2023-02-17T13:35:59.594Z,6.80
2023-02-17T13:38:29.139Z,6.70
2023-02-17T13:41:01.654Z,6.80
2023-02-17T13:43:31.828Z,6.70
2023-02-17T13:46:03.591Z,6.70
2023-02-17T13:48:33.002Z,6.80
2023-02-17T13:51:02.709Z,6.80
2023-02-17T13:53:32.392Z,6.80
2023-02-17T13:56:01.949Z,6.80
2023-02-17T13:58:31.906Z,6.80
2023-02-17T14:01:03.976Z,6.80
2023-02-17T14:03:35.924Z,6.80
2023-02-17T14:06:04.907Z,6.90
2023-02-17T14:08:37.497Z,6.80
2023-02-17T14:11:09.270Z,6.80
2023-02-17T14:13:38.555Z,6.90
2023-02-17T14:16:08.799Z,6.90
2023-02-17T14:18:38.934Z,6.90
2023-02-17T14:21:09.683Z,6.90
2023-02-17T14:23:49.043Z,6.90
2023-02-17T14:26:30.209Z,6.90
2023-02-17T14:28:59.854Z,6.90
2023-02-17T14:31:29.919Z,6.80
2023-02-17T14:34:00.602Z,6.90
2023-02-17T14:36:31.704Z,6.90
2023-02-17T14:39:00.401Z,6.90
2023-02-17T14:41:29.029Z,6.90
2023-02-17T14:43:57.325Z,6.80
2023-02-17T14:46:25.576Z,6.80
2023-02-17T14:48:55.415Z,6.90
2023-02-17T14:51:25.142Z,6.80
2023-02-17T14:53:53.915Z,6.80
2023-02-17T14:56:26.327Z,6.80
2023-02-17T14:58:54.943Z,6.90
2023-02-17T15:01:24.697Z,6.90
2023-02-17T15:03:54.770Z,6.90
2023-02-17T15:06:29.323Z,6.90
2023-02-17T15:08:58.798Z,6.90
2023-02-17T15:11:31.227Z,7.00
2023-02-17T15:13:59.235Z,6.90
2023-02-17T15:16:27.236Z,6.90
2023-02-17T15:18:56.623Z,6.90
2023-02-17T15:21:28.555Z,6.90
2023-02-17T15:23:57.955Z,6.90
2023-02-17T15:26:26.547Z,6.90
2023-02-17T15:28:57.058Z,6.90
2023-02-17T15:31:25.703Z,6.90
2023-02-17T15:33:58.727Z,6.90
2023-02-17T15:36:27.770Z,6.90
2023-02-17T15:38:55.925Z,6.90
2023-02-17T15:41:26.846Z,6.90
2023-02-17T15:43:56.655Z,6.90
2023-02-17T15:46:31.006Z,6.90
2023-02-17T15:49:00.539Z,6.90
2023-02-17T15:51:28.499Z,6.90
2023-02-17T15:53:56.469Z,6.90
2023-02-17T15:56:27.767Z,6.90
2023-02-17T15:58:55.883Z,6.90
2023-02-17T16:01:28.764Z,6.90
2023-02-17T16:03:57.550Z,6.90
2023-02-17T16:06:27.504Z,6.90
2023-02-17T16:08:58.305Z,6.90
2023-02-17T16:11:28.360Z,6.90
2023-02-17T16:13:56.327Z,7.00
2023-02-17T16:16:26.124Z,7.00
2023-02-17T16:18:54.030Z,7.00
2023-02-17T16:21:22.072Z,7.00
2023-02-17T16:23:52.604Z,7.00
2023-02-17T16:26:27.226Z,7.00
2023-02-17T16:28:55.557Z,7.00
2023-02-17T16:31:24.170Z,7.00
2023-02-17T16:33:52.288Z,7.00
2023-02-17T16:36:21.825Z,7.00
2023-02-17T16:38:51.799Z,7.00
2023-02-17T16:41:21.077Z,7.00
2023-02-17T16:43:49.043Z,7.00
2023-02-17T16:46:27.758Z,7.00
2023-02-17T16:48:55.725Z,7.10
2023-02-17T16:51:23.706Z,7.00
2023-02-17T16:53:53.665Z,7.10
2023-02-17T16:56:27.389Z,7.10
2023-02-17T16:58:55.346Z,7.10
2023-02-17T17:01:24.321Z,7.10
2023-02-17T17:03:52.402Z,7.10
2023-02-17T17:06:23.571Z,7.10
2023-02-17T17:08:54.131Z,7.10
2023-02-17T17:11:24.669Z,7.10
2023-02-17T17:13:53.576Z,7.10
2023-02-17T17:16:23.911Z,7.10
2023-02-17T17:18:51.827Z,7.10
2023-02-17T17:21:21.196Z,7.10
2023-02-17T17:23:50.612Z,7.10
2023-02-17T17:26:25.523Z,7.10
2023-02-17T17:28:54.089Z,7.10
2023-02-17T17:31:22.458Z,7.10
2023-02-17T17:33:51.963Z,7.10
2023-02-17T17:36:25.807Z,7.20
2023-02-17T17:38:54.620Z,7.20
2023-02-17T17:41:25.719Z,7.20
2023-02-17T17:43:55.378Z,7.20
2023-02-17T17:46:25.269Z,7.20
2023-02-17T17:48:53.193Z,7.20
2023-02-17T17:51:23.482Z,7.20
2023-02-17T17:53:51.778Z,7.20
2023-02-17T17:56:22.711Z,7.20
2023-02-17T17:58:52.902Z,7.20
2023-02-17T18:01:21.906Z,7.20
2023-02-17T18:03:50.347Z,7.30
2023-02-17T18:06:21.403Z,7.30
2023-02-17T18:08:51.138Z,7.30
2023-02-17T18:11:20.734Z,7.30
2023-02-17T18:13:52.988Z,7.30
2023-02-17T18:16:22.540Z,7.30
2023-02-17T18:18:51.660Z,7.30
2023-02-17T18:21:19.671Z,7.30
2023-02-17T18:23:48.047Z,7.40
2023-02-17T18:26:16.484Z,7.40
2023-02-17T18:28:44.525Z,7.40
2023-02-17T18:31:15.848Z,7.40
2023-02-17T18:33:44.617Z,7.40
2023-02-17T18:36:15.749Z,7.40
2023-02-17T18:38:43.983Z,7.50
2023-02-17T18:41:18.549Z,7.50
2023-02-17T18:43:46.769Z,7.50
2023-02-17T18:46:16.149Z,7.50
2023-02-17T18:48:44.394Z,7.50
2023-02-17T18:51:15.156Z,7.60
2023-02-17T18:53:43.858Z,7.60
2023-02-17T18:56:13.139Z,7.60
2023-02-17T18:58:42.382Z,7.70
2023-02-17T19:01:18.614Z,7.70
2023-02-17T19:03:47.181Z,7.70
2023-02-17T19:06:17.518Z,7.70
2023-02-17T19:08:46.680Z,7.70
2023-02-17T19:11:15.633Z,7.80
2023-02-17T19:13:43.630Z,7.80
2023-02-17T19:16:15.188Z,7.80
2023-02-17T19:18:45.471Z,7.80
2023-02-17T19:21:13.630Z,7.90
2023-02-17T19:23:42.528Z,7.90
2023-02-17T19:26:12.015Z,8.00
2023-02-17T19:28:40.700Z,8.00
2023-02-17T19:31:09.925Z,8.10
2023-02-17T19:33:38.508Z,8.10
2023-02-17T19:36:13.682Z,8.10
2023-02-17T19:38:41.794Z,8.20
2023-02-17T19:41:11.500Z,8.20
2023-02-17T19:43:40.038Z,8.20
2023-02-17T19:46:08.880Z,8.30
2023-02-17T19:48:37.170Z,8.30
2023-02-17T19:51:07.752Z,8.30
2023-02-17T19:53:37.365Z,8.30
2023-02-17T19:56:12.198Z,8.40
2023-02-17T19:58:40.549Z,8.40
2023-02-17T20:01:09.763Z,8.50
2023-02-17T20:03:38.160Z,8.50
2023-02-17T20:06:09.028Z,8.50
2023-02-17T20:08:39.288Z,8.60
2023-02-17T20:11:08.816Z,8.60
2023-02-17T20:13:45.624Z,8.60
2023-02-17T20:16:15.769Z,8.60
2023-02-17T20:18:45.737Z,8.70
2023-02-17T20:21:16.447Z,8.70
2023-02-17T20:23:46.257Z,8.70
2023-02-17T20:26:16.675Z,8.80
2023-02-17T20:28:44.707Z,8.80
2023-02-17T20:31:13.474Z,8.80
2023-02-17T20:33:41.780Z,8.80
2023-02-17T20:36:11.138Z,8.90
2023-02-17T20:38:39.577Z,8.90
2023-02-17T20:41:10.119Z,8.90
2023-02-17T20:43:38.844Z,8.90
2023-02-17T20:46:07.833Z,8.90
2023-02-17T20:48:36.073Z,8.90
2023-02-17T20:51:05.759Z,8.90
2023-02-17T20:53:33.913Z,8.90
2023-02-17T20:56:02.101Z,9.00
2023-02-17T20:58:31.387Z,9.00
2023-02-17T21:00:59.301Z,9.00
2023-02-17T21:03:27.387Z,9.00
2023-02-17T21:05:55.378Z,9.00
2023-02-17T21:08:23.513Z,9.00
2023-02-17T21:10:51.396Z,9.00
2023-02-17T21:13:19.761Z,8.90
2023-02-17T21:15:49.217Z,8.90
2023-02-17T21:18:17.413Z,8.90
2023-02-17T21:20:45.462Z,8.90
2023-02-17T21:23:13.511Z,8.90
2023-02-17T21:25:41.408Z,9.00
2023-02-17T21:28:09.311Z,9.00
2023-02-17T21:30:37.233Z,9.00
2023-02-17T21:33:06.571Z,9.00
2023-02-17T21:35:34.545Z,9.00
2023-02-17T21:38:02.416Z,9.00
2023-02-17T21:40:30.498Z,9.00
2023-02-17T21:43:27.256Z,9.00
2023-02-17T21:45:55.176Z,9.10
2023-02-17T21:48:24.519Z,9.10
2023-02-17T21:50:52.389Z,9.10
2023-02-17T21:53:20.309Z,9.10
2023-02-17T21:55:48.214Z,9.10
2023-02-17T21:58:16.093Z,9.10
2023-02-17T22:00:44.046Z,9.00
2023-02-17T22:03:11.978Z,9.00
2023-02-17T22:05:41.204Z,9.00
2023-02-17T22:08:09.198Z,9.00
2023-02-17T22:10:37.884Z,8.90
2023-02-17T22:13:06.213Z,8.80
2023-02-17T22:15:34.245Z,8.80
2023-02-17T22:18:03.012Z,8.70
2023-02-17T22:20:31.214Z,8.60
2023-02-17T22:23:00.473Z,8.50
2023-02-17T22:25:28.473Z,8.40
2023-02-17T22:27:56.389Z,8.30
2023-02-17T22:30:24.717Z,8.40
2023-02-17T22:32:52.626Z,8.40
2023-02-17T22:35:20.980Z,8.40
2023-02-17T22:37:48.989Z,8.40
2023-02-17T22:40:18.606Z,8.30
2023-02-17T22:42:46.516Z,8.30
2023-02-17T22:45:14.380Z,8.20
2023-02-17T22:47:42.252Z,8.10
2023-02-17T22:50:10.469Z,8.00
2023-02-17T22:52:38.379Z,7.90
2023-02-17T22:55:06.934Z,7.90
2023-02-17T22:57:36.198Z,7.90
2023-02-17T23:00:04.646Z,8.00
2023-02-17T23:02:35.257Z,7.90
2023-02-17T23:05:03.364Z,7.90
2023-02-17T23:07:31.294Z,8.00
2023-02-17T23:09:59.202Z,8.00
2023-02-17T23:12:27.500Z,8.00
2023-02-17T23:14:56.803Z,8.00
2023-02-17T23:17:24.723Z,7.80
2023-02-17T23:19:52.675Z,7.80
2023-02-17T23:22:20.623Z,7.70
2023-02-17T23:24:49.325Z,7.70
2023-02-17T23:27:17.322Z,7.80
2023-02-17T23:29:45.299Z,7.70
2023-02-17T23:32:14.635Z,7.60
2023-02-17T23:34:42.598Z,7.70
2023-02-17T23:37:10.481Z,7.60
2023-02-17T23:39:39.075Z,7.70
2023-02-17T23:42:07.460Z,7.60
2023-02-17T23:44:35.461Z,7.60
2023-02-17T23:47:05.126Z,7.60
2023-02-17T23:49:34.478Z,7.70
2023-02-17T23:52:02.574Z,7.80
2023-02-17T23:54:30.467Z,7.70
2023-02-17T23:56:58.423Z,7.70
2023-02-17T23:59:26.431Z,7.70
